createdAt,value
2022-10-30T00:00:49.552Z,99.90
2022-10-30T00:03:17.311Z,99.90
2022-10-30T00:05:49.383Z,99.90
2022-10-30T00:08:18.463Z,99.90
2022-10-30T00:10:46.126Z,99.90
2022-10-30T00:13:14.147Z,99.90
2022-10-30T00:15:51.169Z,99.90
2022-10-30T00:18:18.721Z,99.90
2022-10-30T00:20:45.608Z,99.90
2022-10-30T00:23:12.728Z,99.90
2022-10-30T00:25:39.820Z,99.90
2022-10-30T00:28:07.957Z,99.90
2022-10-30T00:30:35.649Z,99.90
2022-10-30T00:33:03.268Z,99.90
2022-10-30T00:35:30.577Z,99.90
2022-10-30T00:38:01.093Z,99.90
2022-10-30T00:40:28.393Z,99.90
2022-10-30T00:42:55.281Z,99.90
2022-10-30T00:45:22.214Z,99.90
2022-10-30T00:47:56.699Z,99.90
2022-10-30T00:53:11.688Z,99.90
2022-10-30T00:55:56.038Z,99.90
2022-10-30T00:58:33.297Z,99.90
2022-10-30T01:01:04.312Z,99.90
2022-10-30T01:03:32.453Z,99.90
2022-10-30T01:06:02.962Z,99.90
2022-10-30T01:08:30.231Z,99.90
2022-10-30T01:10:59.866Z,99.90
2022-10-30T01:13:27.632Z,99.90
2022-10-30T01:16:10.728Z,99.90
2022-10-30T01:18:52.775Z,99.90
2022-10-30T01:21:27.591Z,99.90
2022-10-30T01:24:06.697Z,99.90
2022-10-30T01:26:46.992Z,99.90
2022-10-30T01:29:40.909Z,99.90
2022-10-30T01:32:32.908Z,99.90
2022-10-30T01:35:10.036Z,99.90
2022-10-30T01:37:48.138Z,99.90
2022-10-30T01:40:18.069Z,99.90
2022-10-30T01:42:49.434Z,99.90
2022-10-30T01:45:30.873Z,99.90
2022-10-30T01:48:41.595Z,99.90
2022-10-30T01:51:46.393Z,99.90
2022-10-30T01:54:27.753Z,99.90
2022-10-30T01:57:21.895Z,99.90
2022-10-30T02:00:11.002Z,99.90
2022-10-30T02:02:37.992Z,99.90
2022-10-30T02:05:07.893Z,99.90
2022-10-30T02:07:36.357Z,99.90
2022-10-30T02:10:04.257Z,99.90
2022-10-30T02:12:31.678Z,99.90
2022-10-30T02:15:00.861Z,99.90
2022-10-30T02:17:28.467Z,99.90
2022-10-30T02:19:55.659Z,99.90
2022-10-30T02:22:22.894Z,99.90
2022-10-30T02:24:49.719Z,99.90
2022-10-30T02:27:16.814Z,99.90
2022-10-30T02:29:43.665Z,99.90
2022-10-30T02:32:11.538Z,99.90
2022-10-30T02:34:38.367Z,99.90
2022-10-30T02:37:05.206Z,99.90
2022-10-30T02:39:31.986Z,99.90
2022-10-30T02:42:00.314Z,99.90
2022-10-30T02:44:27.071Z,99.90
2022-10-30T02:46:53.926Z,99.90
2022-10-30T02:49:20.707Z,99.90
2022-10-30T02:51:47.553Z,99.90
2022-10-30T02:54:14.413Z,99.90
2022-10-30T02:56:41.516Z,99.90
2022-10-30T02:59:08.412Z,99.90
2022-10-30T03:01:35.305Z,99.90
2022-10-30T03:04:02.190Z,99.90
2022-10-30T03:06:29.206Z,99.90
2022-10-30T03:08:56.001Z,99.90
2022-10-30T03:11:22.885Z,99.90
2022-10-30T03:13:50.336Z,99.90
2022-10-30T03:16:25.693Z,99.90
2022-10-30T03:18:53.848Z,99.90
2022-10-30T03:21:23.242Z,99.90
2022-10-30T03:23:50.667Z,99.90
2022-10-30T03:26:17.710Z,99.90
2022-10-30T03:28:44.621Z,99.90
2022-10-30T03:31:13.952Z,99.90
2022-10-30T03:33:41.069Z,99.90
2022-10-30T03:36:09.894Z,99.90
2022-10-30T03:38:36.879Z,99.90
2022-10-30T03:41:04.743Z,99.90
2022-10-30T03:43:31.799Z,99.90
2022-10-30T03:45:58.631Z,99.90
2022-10-30T03:48:27.622Z,99.90
2022-10-30T03:50:56.092Z,99.90
2022-10-30T03:53:26.844Z,99.90
2022-10-30T03:55:57.941Z,99.90
2022-10-30T03:58:24.878Z,99.90
2022-10-30T04:00:51.822Z,99.90
2022-10-30T04:03:18.682Z,99.90
2022-10-30T04:05:45.809Z,99.90
2022-10-30T04:08:14.283Z,99.90
2022-10-30T04:10:45.445Z,99.90
2022-10-30T04:13:14.261Z,99.90
2022-10-30T04:15:41.642Z,99.90
2022-10-30T04:18:11.556Z,99.90
2022-10-30T04:20:38.374Z,99.90
2022-10-30T04:23:07.105Z,99.90
2022-10-30T04:25:35.229Z,99.90
2022-10-30T04:28:02.372Z,99.90
2022-10-30T04:30:32.403Z,99.90
2022-10-30T04:32:59.759Z,99.90
2022-10-30T04:35:30.143Z,99.90
2022-10-30T04:37:59.104Z,99.90
2022-10-30T04:40:28.348Z,99.90
2022-10-30T04:42:55.497Z,99.90
2022-10-30T04:45:22.860Z,99.90
2022-10-30T04:47:49.710Z,99.90
2022-10-30T04:50:17.042Z,99.90
2022-10-30T04:52:44.063Z,99.90
2022-10-30T04:55:11.648Z,99.90
2022-10-30T04:57:38.670Z,99.90
2022-10-30T05:00:07.795Z,99.90
2022-10-30T05:02:36.897Z,99.90
2022-10-30T05:05:04.263Z,99.90
2022-10-30T05:07:31.177Z,99.90
2022-10-30T05:09:58.025Z,99.90
2022-10-30T05:12:24.845Z,99.90
2022-10-30T05:14:51.712Z,99.90
2022-10-30T05:17:18.653Z,99.90
2022-10-30T05:19:45.646Z,99.90
2022-10-30T05:22:12.902Z,99.90
2022-10-30T05:24:39.772Z,99.90
2022-10-30T05:27:06.624Z,99.90
2022-10-30T05:29:33.437Z,99.90
2022-10-30T05:32:00.283Z,99.90
2022-10-30T05:34:27.223Z,99.90
2022-10-30T05:36:54.153Z,99.90
2022-10-30T05:39:21.001Z,99.90
2022-10-30T05:41:47.975Z,99.90
2022-10-30T05:44:18.021Z,99.90
2022-10-30T05:46:51.233Z,99.90
2022-10-30T05:49:18.116Z,99.90
2022-10-30T05:51:45.046Z,99.90
2022-10-30T05:54:11.861Z,99.90
2022-10-30T05:56:38.700Z,99.90
2022-10-30T05:59:05.537Z,99.90
2022-10-30T06:01:32.500Z,99.90
2022-10-30T06:03:59.422Z,99.90
2022-10-30T06:06:26.282Z,99.90
2022-10-30T06:08:53.151Z,99.90
2022-10-30T06:11:19.978Z,99.90
2022-10-30T06:13:48.239Z,99.90
2022-10-30T06:16:15.095Z,99.90
2022-10-30T06:18:41.903Z,99.90
2022-10-30T06:21:08.741Z,99.90
2022-10-30T06:23:35.537Z,99.90
2022-10-30T06:26:02.335Z,99.90
2022-10-30T06:28:29.126Z,99.90
2022-10-30T06:30:56.013Z,99.90
2022-10-30T06:33:23.028Z,99.90
2022-10-30T06:35:50.144Z,99.90
2022-10-30T06:38:17.428Z,99.90
2022-10-30T06:40:44.251Z,99.90
2022-10-30T06:43:11.092Z,99.90
2022-10-30T06:45:37.899Z,99.90
2022-10-30T06:48:04.911Z,99.90
2022-10-30T06:50:32.301Z,99.90
2022-10-30T06:52:59.248Z,99.90
2022-10-30T06:55:26.063Z,99.90
2022-10-30T06:57:57.341Z,99.90
2022-10-30T07:00:24.582Z,99.90
2022-10-30T07:03:02.527Z,99.90
2022-10-30T07:05:29.837Z,99.90
2022-10-30T07:07:57.555Z,99.90
2022-10-30T07:10:24.467Z,99.90
2022-10-30T07:12:52.882Z,99.90
2022-10-30T07:15:19.768Z,99.90
2022-10-30T07:18:01.298Z,99.90
2022-10-30T07:20:30.582Z,99.90
2022-10-30T07:22:57.558Z,99.90
2022-10-30T07:25:24.665Z,99.90
2022-10-30T07:27:53.246Z,99.90
2022-10-30T07:30:22.990Z,99.90
2022-10-30T07:33:01.345Z,99.90
2022-10-30T07:35:29.378Z,99.90
2022-10-30T07:37:56.648Z,99.90
2022-10-30T07:40:23.512Z,99.90
2022-10-30T07:42:56.940Z,99.90
2022-10-30T07:45:24.265Z,99.90
2022-10-30T07:47:51.095Z,99.90
2022-10-30T07:50:18.122Z,99.90
2022-10-30T07:52:45.388Z,99.90
2022-10-30T07:55:12.540Z,99.90
2022-10-30T07:57:40.904Z,99.90
2022-10-30T08:00:11.001Z,99.90
2022-10-30T08:02:38.242Z,99.90
2022-10-30T08:05:06.050Z,99.90
2022-10-30T08:07:34.552Z,99.90
2022-10-30T08:10:01.683Z,99.90
2022-10-30T08:12:28.876Z,99.90
2022-10-30T08:14:55.689Z,99.90
2022-10-30T08:17:22.696Z,99.90
2022-10-30T08:19:49.522Z,99.90
2022-10-30T08:22:16.497Z,99.90
2022-10-30T08:24:44.208Z,99.90
2022-10-30T08:27:11.093Z,99.90
2022-10-30T08:29:37.911Z,99.90
2022-10-30T08:32:05.125Z,99.90
2022-10-30T08:34:32.570Z,99.90
2022-10-30T08:37:00.136Z,99.90
2022-10-30T08:39:27.185Z,99.90
2022-10-30T08:41:54.120Z,99.90
2022-10-30T08:44:21.565Z,99.90
2022-10-30T08:46:48.385Z,99.90
2022-10-30T08:49:15.248Z,99.90
2022-10-30T08:51:42.838Z,99.90
2022-10-30T08:54:10.590Z,99.90
2022-10-30T08:56:37.550Z,99.90
2022-10-30T08:59:04.416Z,99.90
2022-10-30T09:01:31.331Z,99.90
2022-10-30T09:03:58.321Z,99.90
2022-10-30T09:06:25.114Z,99.90
2022-10-30T09:08:51.969Z,99.90
2022-10-30T09:11:18.821Z,99.90
2022-10-30T09:13:45.641Z,99.90
2022-10-30T09:16:12.483Z,99.90
2022-10-30T09:18:39.447Z,99.90
2022-10-30T09:21:06.558Z,99.90
2022-10-30T09:23:33.540Z,99.90
2022-10-30T09:26:00.487Z,99.90
2022-10-30T09:28:27.433Z,99.90
2022-10-30T09:30:58.540Z,99.90
2022-10-30T09:33:25.440Z,99.90
2022-10-30T09:35:52.331Z,99.90
2022-10-30T09:38:19.184Z,99.90
2022-10-30T09:40:49.108Z,99.90
2022-10-30T09:43:44.289Z,99.90
2022-10-30T09:46:33.480Z,99.90
2022-10-30T09:49:29.291Z,99.90
2022-10-30T09:52:14.821Z,99.90
2022-10-30T09:54:50.223Z,99.90
2022-10-30T09:57:24.562Z,99.90
2022-10-30T10:00:06.618Z,99.90
2022-10-30T10:02:40.436Z,99.90
2022-10-30T10:05:37.804Z,99.90
2022-10-30T10:08:10.187Z,99.90
2022-10-30T10:10:45.703Z,99.90
2022-10-30T10:13:33.113Z,99.90
2022-10-30T10:16:23.939Z,99.90
2022-10-30T10:18:58.559Z,99.90
2022-10-30T10:21:31.013Z,99.90
2022-10-30T10:24:03.624Z,99.90
2022-10-30T10:26:42.972Z,99.90
2022-10-30T10:29:22.186Z,99.90
2022-10-30T10:32:17.752Z,99.90
2022-10-30T10:35:08.864Z,99.90
2022-10-30T10:37:57.326Z,99.90
2022-10-30T10:40:36.865Z,99.90
2022-10-30T10:43:34.755Z,99.90
2022-10-30T10:46:23.071Z,99.90
2022-10-30T10:49:33.439Z,99.90
2022-10-30T10:52:08.832Z,99.90
2022-10-30T10:54:46.345Z,99.90
2022-10-30T10:57:29.061Z,99.90
2022-10-30T11:00:02.332Z,99.90
2022-10-30T11:02:57.877Z,99.90
2022-10-30T11:05:54.286Z,99.90
2022-10-30T11:08:30.501Z,99.90
2022-10-30T11:11:01.894Z,99.90
2022-10-30T11:13:40.914Z,99.90
2022-10-30T11:16:24.260Z,99.90
2022-10-30T11:18:58.171Z,99.90
2022-10-30T11:21:27.459Z,99.90
2022-10-30T11:23:54.374Z,99.90
2022-10-30T11:30:56.087Z,99.90
2022-10-30T11:33:23.463Z,99.90
2022-10-30T11:39:07.253Z,99.90
2022-10-30T11:41:34.200Z,99.90
2022-10-30T11:44:01.122Z,99.90
2022-10-30T11:46:28.467Z,99.90
2022-10-30T11:48:55.470Z,99.90
2022-10-30T11:51:39.451Z,99.90
2022-10-30T11:54:07.660Z,99.40
2022-10-30T11:56:35.656Z,99.90
2022-10-30T11:59:04.105Z,99.90
2022-10-30T12:01:35.947Z,99.90
2022-10-30T12:04:16.010Z,99.90
2022-10-30T12:06:42.926Z,99.90
2022-10-30T12:09:23.190Z,99.90
2022-10-30T12:11:50.363Z,99.90
2022-10-30T12:14:20.707Z,99.90
2022-10-30T12:16:52.369Z,99.80
2022-10-30T12:19:22.766Z,99.60
2022-10-30T12:21:57.723Z,99.00
2022-10-30T12:24:27.554Z,98.70
2022-10-30T12:26:56.057Z,98.80
2022-10-30T12:30:02.607Z,98.40
2022-10-30T12:32:25.915Z,98.70
2022-10-30T12:35:08.686Z,98.60
2022-10-30T12:37:41.595Z,98.60
2022-10-30T12:40:15.854Z,99.10
2022-10-30T12:42:57.484Z,98.70
2022-10-30T12:45:34.624Z,99.30
2022-10-30T12:48:09.101Z,99.60
2022-10-30T12:50:51.175Z,99.90
2022-10-30T12:53:59.599Z,99.90
2022-10-30T12:56:39.101Z,99.90
2022-10-30T12:59:26.083Z,99.90
2022-10-30T13:02:21.161Z,99.90
2022-10-30T13:04:52.604Z,99.90
2022-10-30T13:07:38.710Z,99.90
2022-10-30T13:10:33.473Z,99.90
2022-10-30T13:13:25.314Z,99.90
2022-10-30T13:15:57.722Z,99.20
2022-10-30T13:18:31.432Z,98.70
2022-10-30T13:21:24.174Z,98.40
2022-10-30T13:24:00.373Z,97.20
2022-10-30T13:26:50.194Z,96.60
2022-10-30T13:29:37.626Z,97.30
2022-10-30T13:32:13.375Z,97.80
2022-10-30T13:34:52.312Z,98.60
2022-10-30T13:37:50.545Z,99.20
2022-10-30T13:40:40.503Z,99.50
2022-10-30T13:43:19.399Z,98.90
2022-10-30T13:45:46.232Z,99.30
2022-10-30T13:48:30.707Z,99.00
2022-10-30T13:51:34.571Z,98.70
2022-10-30T13:54:13.996Z,98.50
2022-10-30T13:56:44.387Z,98.80
2022-10-30T13:59:54.910Z,99.10
2022-10-30T14:02:34.835Z,99.80
2022-10-30T14:05:12.632Z,99.90
2022-10-30T14:07:53.498Z,99.90
2022-10-30T14:10:32.384Z,99.90
2022-10-30T14:12:59.412Z,99.90
2022-10-30T14:15:32.536Z,99.90
2022-10-30T14:18:14.520Z,99.90
2022-10-30T14:21:21.607Z,99.90
2022-10-30T14:23:48.432Z,99.90
2022-10-30T14:26:20.851Z,99.90
2022-10-30T14:28:49.698Z,99.90
2022-10-30T14:31:17.931Z,99.90
2022-10-30T14:33:55.451Z,99.90
2022-10-30T14:36:34.641Z,99.90
2022-10-30T14:39:10.691Z,99.90
2022-10-30T14:41:56.362Z,99.90
2022-10-30T14:44:54.163Z,99.90
2022-10-30T14:47:49.016Z,99.90
2022-10-30T14:50:27.766Z,99.90
2022-10-30T14:53:01.287Z,99.90
2022-10-30T14:55:36.041Z,99.90
2022-10-30T14:58:02.879Z,99.90
2022-10-30T15:00:35.722Z,99.90
2022-10-30T15:03:14.917Z,99.90
2022-10-30T15:06:06.751Z,99.90
2022-10-30T15:09:01.123Z,99.90
2022-10-30T15:11:40.437Z,99.90
2022-10-30T15:14:21.051Z,99.90
2022-10-30T15:16:51.486Z,99.90
2022-10-30T15:19:21.156Z,99.90
2022-10-30T15:21:52.295Z,99.90
2022-10-30T15:24:29.646Z,99.90
2022-10-30T15:27:00.285Z,99.90
2022-10-30T15:29:31.938Z,99.90
2022-10-30T15:32:00.265Z,99.90
2022-10-30T15:34:29.119Z,99.90
2022-10-30T15:36:56.711Z,99.90
2022-10-30T15:39:23.989Z,99.90
2022-10-30T15:42:04.179Z,99.90
2022-10-30T15:44:33.547Z,99.90
2022-10-30T15:47:02.369Z,99.90
2022-10-30T15:49:38.931Z,99.90
2022-10-30T15:52:17.247Z,99.90
2022-10-30T15:54:46.837Z,99.90
2022-10-30T16:00:40.117Z,99.90
2022-10-30T16:03:17.263Z,99.90
2022-10-30T16:05:44.236Z,99.90
2022-10-30T16:08:23.996Z,99.90
2022-10-30T16:10:54.977Z,99.90
2022-10-30T16:13:31.785Z,99.90
2022-10-30T16:16:00.831Z,99.90
2022-10-30T16:18:31.734Z,99.90
2022-10-30T16:21:09.350Z,99.90
2022-10-30T16:23:42.194Z,99.90
2022-10-30T16:26:34.919Z,99.90
2022-10-30T16:29:07.945Z,99.90
2022-10-30T16:31:36.179Z,99.90
2022-10-30T16:34:05.122Z,99.90
2022-10-30T16:36:32.423Z,99.90
2022-10-30T16:38:59.442Z,99.90
2022-10-30T16:41:27.985Z,99.90
2022-10-30T16:44:08.183Z,99.90
2022-10-30T16:46:46.094Z,99.90
2022-10-30T16:49:19.018Z,99.90
2022-10-30T16:51:46.830Z,99.90
2022-10-30T16:54:24.151Z,99.90
2022-10-30T16:56:54.185Z,99.90
2022-10-30T16:59:29.321Z,99.90
2022-10-30T17:01:58.887Z,99.90
2022-10-30T17:04:28.417Z,99.90
2022-10-30T17:07:24.226Z,99.90
2022-10-30T17:09:53.268Z,99.90
2022-10-30T17:12:25.399Z,99.90
2022-10-30T17:15:12.726Z,99.90
2022-10-30T17:17:41.819Z,99.90
2022-10-30T17:20:22.745Z,99.90
2022-10-30T17:23:23.001Z,99.90
2022-10-30T17:25:49.960Z,99.90
2022-10-30T17:28:28.932Z,99.90
2022-10-30T17:30:56.323Z,99.90
2022-10-30T17:33:35.283Z,99.90
2022-10-30T17:36:04.167Z,99.90
2022-10-30T17:38:31.166Z,99.90
2022-10-30T17:40:58.351Z,99.90
2022-10-30T17:43:30.013Z,99.90
2022-10-30T17:45:57.624Z,99.90
2022-10-30T17:48:28.002Z,99.90
2022-10-30T17:50:55.106Z,99.90
2022-10-30T17:53:24.652Z,99.90
2022-10-30T17:56:16.757Z,99.90
2022-10-30T17:58:43.697Z,99.90
2022-10-30T18:01:25.438Z,99.90
2022-10-30T18:03:55.207Z,99.90
2022-10-30T18:06:25.763Z,99.90
2022-10-30T18:08:53.591Z,99.90
2022-10-30T18:11:23.511Z,99.90
2022-10-30T18:13:51.762Z,99.90
2022-10-30T18:16:19.879Z,99.90
2022-10-30T18:18:47.022Z,99.90
2022-10-30T18:21:15.321Z,99.90
2022-10-30T18:23:57.706Z,99.90
2022-10-30T18:26:26.236Z,99.90
2022-10-30T18:28:53.448Z,99.90
2022-10-30T18:31:22.844Z,99.90
2022-10-30T18:33:50.273Z,99.90
2022-10-30T18:36:22.903Z,99.90
2022-10-30T18:38:50.199Z,99.90
2022-10-30T18:41:23.033Z,99.90
2022-10-30T18:43:50.110Z,99.90
2022-10-30T18:46:17.199Z,99.90
2022-10-30T18:48:45.403Z,99.90
2022-10-30T18:51:30.838Z,99.90
2022-10-30T18:53:57.676Z,99.90
2022-10-30T18:56:29.976Z,99.90
2022-10-30T18:59:01.693Z,99.90
2022-10-30T19:01:32.209Z,99.90
2022-10-30T19:04:03.884Z,99.90
2022-10-30T19:06:31.123Z,99.90
2022-10-30T19:08:58.009Z,99.90
2022-10-30T19:11:26.248Z,99.90
2022-10-30T19:13:54.089Z,99.90
2022-10-30T19:16:21.818Z,99.90
2022-10-30T19:18:49.067Z,99.90
2022-10-30T19:21:21.572Z,99.90
2022-10-30T19:23:48.801Z,99.90
2022-10-30T19:26:17.431Z,99.90
2022-10-30T19:28:45.706Z,99.90
2022-10-30T19:31:14.982Z,99.90
2022-10-30T19:33:42.014Z,99.90
2022-10-30T19:36:36.443Z,99.90
2022-10-30T19:39:10.085Z,99.90
2022-10-30T19:41:37.574Z,99.90
2022-10-30T19:44:04.867Z,99.90
2022-10-30T19:46:32.002Z,99.90
2022-10-30T19:49:00.110Z,99.90
2022-10-30T19:51:28.566Z,99.90
2022-10-30T19:53:55.810Z,99.90
2022-10-30T19:56:22.715Z,99.90
2022-10-30T19:58:50.173Z,99.90
2022-10-30T20:01:17.657Z,99.90
2022-10-30T20:03:44.709Z,99.90
2022-10-30T20:06:14.938Z,99.90
2022-10-30T20:08:41.968Z,99.90
2022-10-30T20:11:09.220Z,99.90
2022-10-30T20:13:37.306Z,99.90
2022-10-30T20:16:05.816Z,99.90
2022-10-30T20:18:35.823Z,99.90
2022-10-30T20:21:05.964Z,99.90
2022-10-30T20:23:32.835Z,99.90
2022-10-30T20:26:02.568Z,99.90
2022-10-30T20:28:36.318Z,99.90
2022-10-30T20:31:03.262Z,99.90
2022-10-30T20:33:30.262Z,99.90
2022-10-30T20:35:57.739Z,99.90
2022-10-30T20:38:27.115Z,99.90
2022-10-30T20:40:55.029Z,99.90
2022-10-30T20:43:28.660Z,99.90
2022-10-30T20:45:55.659Z,99.90
2022-10-30T20:48:22.545Z,99.90
2022-10-30T20:50:55.813Z,99.90
2022-10-30T20:53:23.069Z,99.90
2022-10-30T20:55:49.950Z,99.90
2022-10-30T20:58:17.247Z,99.90
2022-10-30T21:00:44.512Z,99.90
2022-10-30T21:03:14.427Z,99.90
2022-10-30T21:05:44.695Z,99.90
2022-10-30T21:08:15.461Z,99.90
2022-10-30T21:10:42.668Z,99.90
2022-10-30T21:13:11.211Z,99.90
2022-10-30T21:15:39.910Z,99.90
2022-10-30T21:18:07.018Z,99.90
2022-10-30T21:20:33.938Z,99.90
2022-10-30T21:23:00.778Z,99.90
2022-10-30T21:25:28.726Z,99.90
2022-10-30T21:27:59.098Z,99.90
2022-10-30T21:30:26.051Z,99.90
2022-10-30T21:32:53.033Z,99.90
2022-10-30T21:35:20.294Z,99.90
2022-10-30T21:37:47.198Z,99.90
2022-10-30T21:40:14.010Z,99.90
2022-10-30T21:42:40.884Z,99.90
2022-10-30T21:45:09.087Z,99.90
2022-10-30T21:47:35.928Z,99.90
2022-10-30T21:50:06.259Z,99.90
2022-10-30T21:52:36.195Z,99.90
2022-10-30T21:55:03.186Z,99.90
2022-10-30T21:57:30.042Z,99.90
2022-10-30T21:59:58.904Z,99.90
2022-10-30T22:02:28.696Z,99.90
2022-10-30T22:04:55.467Z,99.90
2022-10-30T22:07:22.388Z,99.90
2022-10-30T22:09:49.217Z,99.90
2022-10-30T22:12:16.021Z,99.90
2022-10-30T22:14:42.781Z,99.90
2022-10-30T22:17:09.587Z,99.90
2022-10-30T22:19:36.575Z,99.90
2022-10-30T22:22:03.411Z,99.90
2022-10-30T22:24:30.235Z,99.90
2022-10-30T22:26:57.013Z,99.90
2022-10-30T22:29:23.773Z,99.90
2022-10-30T22:31:50.704Z,99.90
2022-10-30T22:34:17.604Z,99.90
2022-10-30T22:36:44.461Z,99.90
2022-10-30T22:39:13.111Z,99.90
2022-10-30T22:41:40.473Z,99.90
2022-10-30T22:44:10.542Z,99.90
2022-10-30T22:46:37.832Z,99.90
2022-10-30T22:49:05.595Z,99.90
2022-10-30T22:51:34.538Z,99.90
2022-10-30T22:54:03.285Z,99.90
2022-10-30T22:56:32.713Z,99.90
2022-10-30T22:59:03.758Z,99.90
2022-10-30T23:01:31.256Z,99.90
2022-10-30T23:04:00.383Z,99.90
2022-10-30T23:06:29.410Z,99.90
2022-10-30T23:08:58.356Z,99.90
2022-10-30T23:11:26.066Z,99.90
2022-10-30T23:13:53.061Z,99.90
2022-10-30T23:16:23.498Z,99.90
2022-10-30T23:18:51.395Z,99.90
2022-10-30T23:21:21.174Z,99.90
2022-10-30T23:23:48.290Z,99.90
2022-10-30T23:26:16.534Z,99.90
2022-10-30T23:28:44.710Z,99.90
2022-10-30T23:31:16.609Z,99.90
2022-10-30T23:33:45.727Z,99.90
2022-10-30T23:36:12.510Z,99.90
2022-10-30T23:38:39.390Z,99.90
2022-10-30T23:41:06.162Z,99.90
2022-10-30T23:43:32.958Z,99.90
2022-10-30T23:45:59.737Z,99.90
2022-10-30T23:48:26.545Z,99.90
2022-10-30T23:50:53.375Z,99.90
2022-10-30T23:53:20.611Z,99.90
2022-10-30T23:55:52.627Z,99.90
2022-10-30T23:58:20.449Z,99.90
